Time;durP1;ratioP1;P1;durP2;ratioP2;P2;SDS_P1;SDS_P2;PMS_P1;PMS_P2;Temp;Humidity;BMP_temperature;BMP_pressure;BME280_temperature;BME280_humidity;BME280_pressure;Samples;Min_cycle;Max_cycle;Signal;HPM_P1;HPM_P2
2022/10/16 00:01:47;;;;;;;1.55;0.60;;;;;;;6.60;100.00;98899.91;5028535;28;20055;-91
2022/10/16 00:04:17;;;;;;;5.97;0.70;;;;;;;6.57;100.00;98905.47;5051754;28;20027;-90
2022/10/16 00:06:46;;;;;;;1.85;0.45;;;;;;;6.55;100.00;98910.88;5029182;28;20047;-90
2022/10/16 00:09:13;;;;;;;3.65;1.50;;;;;;;6.55;100.00;98918.75;5041490;28;20040;-91
2022/10/16 00:11:43;;;;;;;3.45;0.57;;;;;;;6.54;100.00;98930.22;5024329;28;20397;-92
2022/10/16 00:14:14;;;;;;;2.22;0.80;;;;;;;6.55;100.00;98928.41;5027662;28;20063;-91
2022/10/16 00:16:42;;;;;;;2.28;0.55;;;;;;;6.55;100.00;98926.63;5028685;28;20033;-91
2022/10/16 00:19:12;;;;;;;4.70;0.73;;;;;;;6.57;100.00;98940.41;5040514;28;20036;-90
2022/10/16 00:21:40;;;;;;;7.20;1.10;;;;;;;6.54;100.00;98940.75;5057168;28;20086;-90
2022/10/16 00:24:26;;;;;;;;;;;;;;;6.48;100.00;98943.97;5047442;28;20055;-91
2022/10/16 00:26:53;;;;;;;7.55;0.88;;;;;;;6.50;100.00;98947.25;5044993;28;19958;-92
2022/10/16 00:29:21;;;;;;;6.38;1.40;;;;;;;6.55;100.00;98952.03;5041356;28;20031;-91
2022/10/16 00:31:49;;;;;;;3.85;0.90;;;;;;;6.56;100.00;98953.72;5041607;28;20029;-92
2022/10/16 00:34:17;;;;;;;3.90;0.80;;;;;;;6.57;100.00;98952.72;5024325;28;20045;-90
2022/10/16 00:36:45;;;;;;;5.55;0.90;;;;;;;6.59;100.00;98974.41;5039092;28;20550;-91
2022/10/16 00:39:13;;;;;;;3.28;0.70;;;;;;;6.64;100.00;98973.94;5037791;28;20040;-91
2022/10/16 00:41:41;;;;;;;3.50;0.75;;;;;;;6.65;100.00;98986.06;5014273;28;20492;-90
2022/10/16 00:44:49;;;;;;;5.13;0.80;;;;;;;6.68;100.00;98983.13;5025968;28;20124;-90
2022/10/16 00:47:37;;;;;;;2.10;0.60;;;;;;;6.71;100.00;98985.44;5040505;28;20192;-91
2022/10/16 00:50:19;;;;;;;6.05;0.73;;;;;;;6.70;100.00;98987.25;5021408;28;20132;-91
2022/10/16 00:52:51;;;;;;;6.60;1.25;;;;;;;6.71;100.00;98988.06;5028948;28;20484;-90
2022/10/16 00:55:19;;;;;;;2.22;0.45;;;;;;;6.70;100.00;98982.00;5043920;28;20444;-91
2022/10/16 00:57:48;;;;;;;5.97;0.80;;;;;;;6.70;100.00;98989.88;5022942;28;20113;-91
2022/10/16 01:00:22;;;;;;;5.00;0.73;;;;;;;6.72;100.00;98987.09;5019963;28;20039;-92
2022/10/16 01:02:54;;;;;;;6.25;0.73;;;;;;;6.72;100.00;98983.66;5016475;28;20048;-90
2022/10/16 01:05:24;;;;;;;1.73;0.47;;;;;;;6.72;100.00;98968.69;5013488;28;20497;-91
2022/10/16 01:08:04;;;;;;;7.10;0.50;;;;;;;6.75;100.00;98970.22;5036032;28;20045;-90
2022/10/16 01:10:38;;;;;;;5.55;0.75;;;;;;;6.75;100.00;98980.72;5018125;28;20051;-90
2022/10/16 01:13:13;;;;;;;3.20;0.45;;;;;;;6.71;100.00;98985.44;5001073;28;20041;-92
2022/10/16 01:16:06;;;;;;;3.20;0.70;;;;;;;6.69;100.00;98995.28;5026418;28;20037;-90
2022/10/16 01:18:50;;;;;;;4.57;0.82;;;;;;;6.65;100.00;99001.81;5030409;28;20112;-92
2022/10/16 01:21:32;;;;;;;3.10;0.32;;;;;;;6.61;100.00;99006.53;5021084;28;20040;-92
2022/10/16 01:24:10;;;;;;;2.42;0.35;;;;;;;6.64;100.00;99013.31;5020184;28;20165;-90
2022/10/16 01:27:17;;;;;;;1.90;0.47;;;;;;;6.62;100.00;99013.47;5015652;28;20045;-91
2022/10/16 01:29:53;;;;;;;;;;;;;;;6.55;100.00;99020.28;4996392;28;20033;-91
2022/10/16 01:32:29;;;;;;;2.13;0.45;;;;;;;6.58;100.00;99022.59;5019317;28;20357;-90
2022/10/16 01:35:16;;;;;;;2.53;0.30;;;;;;;6.61;100.00;99035.44;5019743;28;20473;-91
2022/10/16 01:38:03;;;;;;;;;;;;;;;6.54;100.00;99030.00;5035965;28;20543;-90
2022/10/16 01:40:34;;;;;;;3.10;0.28;;;;;;;6.60;100.00;99031.16;5035493;28;19923;-90
2022/10/16 01:43:32;;;;;;;3.20;0.20;;;;;;;6.63;100.00;99027.41;5011788;28;20077;-91
2022/10/16 01:46:01;;;;;;;1.65;0.15;;;;;;;6.65;100.00;99028.06;5019687;28;20037;-91
2022/10/16 01:48:30;;;;;;;3.13;0.25;;;;;;;6.67;100.00;99032.19;5019198;28;20440;-90
2022/10/16 01:51:10;;;;;;;1.95;0.28;;;;;;;6.70;100.00;99031.06;5031595;28;20040;-90
2022/10/16 01:53:40;;;;;;;4.47;0.40;;;;;;;6.71;100.00;99035.34;5017231;28;20033;-90
2022/10/16 01:56:13;;;;;;;1.65;0.30;;;;;;;6.76;100.00;99042.75;5035161;28;20531;-91
2022/10/16 01:58:50;;;;;;;1.42;0.10;;;;;;;6.76;100.00;99053.25;5018700;28;20043;-91
2022/10/16 02:01:24;;;;;;;1.40;0.20;;;;;;;6.74;100.00;99063.91;5032056;28;20052;-92
2022/10/16 02:03:59;;;;;;;3.20;0.30;;;;;;;6.70;100.00;99047.63;5033531;28;20045;-91
2022/10/16 02:06:29;;;;;;;2.47;0.38;;;;;;;6.67;100.00;99053.19;5034995;28;20037;-91
2022/10/16 02:09:00;;;;;;;8.70;0.85;;;;;;;6.63;100.00;99048.41;5050381;28;20119;-91
2022/10/16 02:11:30;;;;;;;3.80;0.60;;;;;;;6.56;100.00;99066.59;5057232;28;20029;-90
2022/10/16 02:14:04;;;;;;;1.75;0.30;;;;;;;6.56;100.00;99079.72;5038999;28;20123;-90
2022/10/16 02:16:45;;;;;;;2.65;0.47;;;;;;;6.48;100.00;99092.78;5027774;28;20568;-90
2022/10/16 02:19:19;;;;;;;3.03;0.40;;;;;;;6.42;100.00;99091.56;5024815;28;20475;-91
2022/10/16 02:21:57;;;;;;;9.73;0.68;;;;;;;6.38;100.00;99090.22;5044862;28;20499;-89
2022/10/16 02:24:48;;;;;;;5.40;0.47;;;;;;;6.36;100.00;99106.13;5043135;28;20517;-91
2022/10/16 02:27:42;;;;;;;5.85;0.50;;;;;;;6.31;100.00;99109.19;5051365;28;20056;-91
2022/10/16 02:30:20;;;;;;;3.20;0.85;;;;;;;6.29;100.00;99120.81;5023592;28;20040;-91
2022/10/16 02:32:50;;;;;;;3.95;0.82;;;;;;;6.27;100.00;99120.97;5029223;28;20030;-91
2022/10/16 02:35:21;;;;;;;5.18;0.40;;;;;;;6.24;100.00;99123.06;5020809;28;20040;-90
2022/10/16 02:37:51;;;;;;;1.90;0.30;;;;;;;6.20;100.00;99131.22;5040225;28;20040;-90
2022/10/16 02:40:22;;;;;;;4.80;0.50;;;;;;;6.20;100.00;99140.88;5036836;28;20119;-91
2022/10/16 02:42:54;;;;;;;4.85;0.70;;;;;;;6.15;100.00;99135.25;5038201;28;20392;-90
2022/10/16 02:45:24;;;;;;;2.85;0.52;;;;;;;6.16;100.00;99140.34;5019443;28;20406;-91
2022/10/16 02:47:54;;;;;;;4.25;0.50;;;;;;;6.15;100.00;99143.97;5041905;28;20099;-90
2022/10/16 02:50:24;;;;;;;3.00;0.30;;;;;;;6.15;100.00;99149.22;5055170;28;20071;-91
2022/10/16 02:52:54;;;;;;;3.35;0.50;;;;;;;6.15;100.00;99153.63;5038807;28;21319;-91
2022/10/16 02:55:23;;;;;;;2.13;0.57;;;;;;;6.13;100.00;99158.22;5042499;28;20071;-91
2022/10/16 02:57:51;;;;;;;1.38;0.30;;;;;;;6.01;100.00;99150.50;5041669;28;20028;-91
2022/10/16 03:00:20;;;;;;;3.92;0.52;;;;;;;5.99;100.00;99159.50;5042497;28;20036;-91
2022/10/16 03:02:47;;;;;;;3.90;0.30;;;;;;;5.92;100.00;99154.84;5029096;28;20079;-91
2022/10/16 03:05:16;;;;;;;6.15;0.43;;;;;;;5.90;100.00;99163.81;5014158;28;20025;-91
2022/10/16 03:07:44;;;;;;;4.38;0.30;;;;;;;5.87;100.00;99169.34;5030890;28;20040;-90
2022/10/16 03:10:12;;;;;;;4.10;0.30;;;;;;;5.83;100.00;99172.25;5007222;28;20051;-91
2022/10/16 03:12:39;;;;;;;4.20;0.55;;;;;;;5.79;100.00;99177.94;5006231;28;20041;-90
2022/10/16 03:15:09;;;;;;;2.55;0.43;;;;;;;5.74;100.00;99177.53;5000538;28;20029;-91
2022/10/16 03:17:37;;;;;;;3.92;0.25;;;;;;;5.70;100.00;99183.06;5036650;28;20033;-91
2022/10/16 03:20:06;;;;;;;3.40;0.20;;;;;;;5.68;100.00;99178.94;5007035;28;20036;-91
2022/10/16 03:22:34;;;;;;;7.03;0.30;;;;;;;5.65;100.00;99172.22;5022359;28;20033;-91
2022/10/16 03:25:04;;;;;;;4.28;0.43;;;;;;;5.65;100.00;99179.25;5025705;28;20052;-91
2022/10/16 03:27:33;;;;;;;3.40;0.32;;;;;;;5.65;100.00;99180.06;5015342;28;20080;-91
2022/10/16 03:30:03;;;;;;;5.00;0.50;;;;;;;5.63;100.00;99186.41;5013944;28;20099;-91
2022/10/16 03:32:30;;;;;;;2.70;0.32;;;;;;;5.60;100.00;99198.03;5018300;28;20029;-91
2022/10/16 03:34:59;;;;;;;4.55;0.20;;;;;;;5.59;100.00;99204.22;5022861;28;20125;-91
2022/10/16 03:37:27;;;;;;;1.33;0.30;;;;;;;5.55;100.00;99215.97;5022021;28;20036;-91
2022/10/16 03:39:56;;;;;;;2.45;0.30;;;;;;;5.49;100.00;99214.75;5019338;28;20068;-91
2022/10/16 03:42:24;;;;;;;6.00;0.35;;;;;;;5.43;100.00;99218.75;5014456;28;20026;-91
2022/10/16 03:44:51;;;;;;;3.40;1.02;;;;;;;5.43;100.00;99225.81;5014879;28;20076;-90
2022/10/16 03:47:21;;;;;;;5.90;0.20;;;;;;;5.40;100.00;99242.63;5018028;28;20029;-91
2022/10/16 03:49:50;;;;;;;8.32;0.73;;;;;;;5.41;100.00;99239.06;5002119;28;20124;-90
2022/10/16 03:52:18;;;;;;;3.47;0.50;;;;;;;5.38;100.00;99243.72;5017049;28;20478;-91
2022/10/16 03:54:46;;;;;;;2.05;0.20;;;;;;;5.38;100.00;99254.22;5021849;28;20064;-90
2022/10/16 03:57:14;;;;;;;0.93;0.20;;;;;;;5.37;100.00;99257.81;5006001;28;20060;-91
2022/10/16 03:59:43;;;;;;;4.35;0.40;;;;;;;5.37;100.00;99263.84;5022204;28;20029;-90
2022/10/16 04:02:11;;;;;;;3.47;0.50;;;;;;;5.34;100.00;99262.34;5009005;28;20045;-91
2022/10/16 04:04:38;;;;;;;5.07;0.73;;;;;;;5.32;100.00;99269.53;5000391;28;20033;-91
2022/10/16 04:07:06;;;;;;;1.95;0.55;;;;;;;5.33;100.00;99263.34;5034887;28;20032;-91
2022/10/16 04:09:36;;;;;;;1.90;0.50;;;;;;;5.39;100.00;99264.56;5020907;28;20428;-90
2022/10/16 04:12:06;;;;;;;3.38;0.40;;;;;;;5.42;100.00;99260.81;5011001;28;20469;-92
2022/10/16 04:14:36;;;;;;;5.60;0.30;;;;;;;5.42;100.00;99272.13;5001222;28;20035;-91
2022/10/16 04:17:05;;;;;;;2.70;0.25;;;;;;;5.44;100.00;99279.84;5002144;28;20508;-91
2022/10/16 04:19:34;;;;;;;4.65;1.73;;;;;;;5.46;100.00;99283.19;4999582;28;20067;-91
2022/10/16 04:22:02;;;;;;;3.35;0.20;;;;;;;5.48;100.00;99286.47;5009702;28;20051;-91
2022/10/16 04:24:30;;;;;;;0.82;0.20;;;;;;;5.51;100.00;99285.38;5008512;28;20033;-91
2022/10/16 04:26:58;;;;;;;4.70;0.30;;;;;;;5.51;100.00;99283.56;5014431;28;20104;-91
2022/10/16 04:29:26;;;;;;;1.45;0.22;;;;;;;5.55;100.00;99279.72;5017102;28;20098;-90
2022/10/16 04:31:54;;;;;;;2.97;0.20;;;;;;;5.55;100.00;99279.72;5018689;28;20033;-91
2022/10/16 04:34:23;;;;;;;1.83;0.20;;;;;;;5.56;100.00;99289.22;5004182;28;20041;-91
2022/10/16 04:36:52;;;;;;;2.00;0.30;;;;;;;5.57;100.00;99290.88;5041074;28;20044;-91
2022/10/16 04:39:20;;;;;;;2.47;0.30;;;;;;;5.58;100.00;99295.16;4999174;28;20037;-91
2022/10/16 04:41:49;;;;;;;0.85;0.22;;;;;;;5.57;100.00;99303.97;5004043;28;20504;-91
2022/10/16 04:44:16;;;;;;;1.33;0.30;;;;;;;5.54;100.00;99292.97;5020081;28;20028;-91
2022/10/16 04:46:46;;;;;;;1.17;0.10;;;;;;;5.55;100.00;99305.94;5016448;28;20486;-91
2022/10/16 04:49:16;;;;;;;4.82;0.50;;;;;;;5.52;100.00;99294.88;5000684;28;20043;-91
2022/10/16 04:51:46;;;;;;;3.70;0.30;;;;;;;5.46;100.00;99304.94;5017163;28;20116;-92
2022/10/16 04:54:14;;;;;;;3.08;0.20;;;;;;;5.42;100.00;99308.81;5016619;28;20086;-92
2022/10/16 04:56:47;;;;;;;0.82;0.20;;;;;;;5.39;100.00;99311.72;5019942;28;20041;-91
2022/10/16 04:59:18;;;;;;;6.07;0.30;;;;;;;5.38;100.00;99319.72;5003854;28;20033;-91
2022/10/16 05:01:48;;;;;;;10.50;0.30;;;;;;;5.37;100.00;99316.28;5012324;28;20120;-91
2022/10/16 05:04:17;;;;;;;3.50;0.38;;;;;;;5.32;100.00;99324.53;5036237;28;20041;-91
2022/10/16 05:06:45;;;;;;;2.38;0.47;;;;;;;5.28;100.00;99319.72;5032316;28;20508;-91
2022/10/16 05:09:13;;;;;;;3.47;0.40;;;;;;;5.26;100.00;99332.97;5020225;28;20381;-91
2022/10/16 05:11:41;;;;;;;2.83;0.20;;;;;;;5.22;100.00;99335.00;5033581;28;20036;-91
2022/10/16 05:14:09;;;;;;;2.20;0.30;;;;;;;5.24;100.00;99347.97;5020623;28;20040;-91
2022/10/16 05:16:37;;;;;;;5.10;0.38;;;;;;;5.18;100.00;99340.66;5019330;28;20055;-91
2022/10/16 05:19:05;;;;;;;3.30;0.40;;;;;;;5.19;100.00;99352.81;5020118;28;20036;-91
2022/10/16 05:21:33;;;;;;;5.80;0.60;;;;;;;5.19;100.00;99351.00;5018758;28;20034;-91
2022/10/16 05:24:03;;;;;;;2.58;0.47;;;;;;;5.21;100.00;99366.59;5035969;28;20032;-92
2022/10/16 05:26:30;;;;;;;3.63;0.22;;;;;;;5.22;100.00;99366.47;5025283;28;20028;-91
2022/10/16 05:28:58;;;;;;;3.78;0.30;;;;;;;5.28;100.00;99374.75;5003416;28;20564;-91
2022/10/16 05:31:26;;;;;;;5.70;0.30;;;;;;;5.24;100.00;99378.63;5031875;28;20028;-91
2022/10/16 05:33:59;;;;;;;6.13;0.25;;;;;;;5.16;100.00;99382.72;5003394;28;20029;-91
2022/10/16 05:36:27;;;;;;;5.90;1.30;;;;;;;5.02;100.00;99386.56;5019502;28;20040;-91
2022/10/16 05:38:55;;;;;;;1.98;0.50;;;;;;;4.92;100.00;99398.81;5002964;28;20447;-92
2022/10/16 05:41:25;;;;;;;5.20;0.70;;;;;;;4.87;100.00;99393.97;5014943;28;20079;-92
2022/10/16 05:43:55;;;;;;;4.93;0.68;;;;;;;4.91;100.00;99405.84;4990690;28;20072;-91
2022/10/16 05:46:24;;;;;;;6.38;1.75;;;;;;;4.93;100.00;99410.94;5003348;28;20558;-91
2022/10/16 05:48:54;;;;;;;6.03;1.85;;;;;;;4.91;100.00;99408.44;5019373;28;20037;-91
2022/10/16 05:51:24;;;;;;;2.15;0.40;;;;;;;4.89;100.00;99418.22;5019247;28;20071;-91
2022/10/16 05:53:54;;;;;;;3.78;0.43;;;;;;;4.87;100.00;99429.81;5006555;28;20392;-91
2022/10/16 05:56:24;;;;;;;4.07;0.47;;;;;;;4.69;100.00;99436.50;5019891;28;20175;-91
2022/10/16 05:58:51;;;;;;;1.23;0.28;;;;;;;4.52;100.00;99434.47;5022310;28;20032;-91
2022/10/16 06:01:23;;;;;;;5.20;0.50;;;;;;;4.40;100.00;99446.78;5019580;28;20026;-91
2022/10/16 06:03:53;;;;;;;2.28;0.50;;;;;;;4.29;100.00;99445.06;5035303;28;20100;-92
2022/10/16 06:06:25;;;;;;;0.75;0.30;;;;;;;4.18;100.00;99449.44;5038637;28;20524;-91
2022/10/16 06:08:54;;;;;;;6.38;0.43;;;;;;;4.09;100.00;99450.19;5043197;28;20033;-91
2022/10/16 06:11:25;;;;;;;0.88;0.10;;;;;;;4.02;100.00;99454.25;5062330;28;20122;-91
2022/10/16 06:14:01;;;;;;;3.95;1.30;;;;;;;3.99;100.00;99450.13;5043597;28;20039;-92
2022/10/16 06:16:30;;;;;;;2.72;0.20;;;;;;;4.00;100.00;99456.19;5043158;28;20032;-91
2022/10/16 06:18:59;;;;;;;3.28;0.30;;;;;;;4.02;100.00;99457.72;5035537;28;20033;-91
2022/10/16 06:21:28;;;;;;;2.05;0.20;;;;;;;4.02;100.00;99452.47;5039565;28;20500;-91
2022/10/16 06:23:57;;;;;;;0.57;0.25;;;;;;;4.01;100.00;99453.44;5053663;28;20489;-90
2022/10/16 06:26:29;;;;;;;1.88;0.30;;;;;;;4.02;100.00;99447.25;5038804;28;20033;-92
2022/10/16 06:29:00;;;;;;;5.07;0.40;;;;;;;4.04;100.00;99450.59;5040683;28;20068;-91
2022/10/16 06:31:33;;;;;;;0.73;0.20;;;;;;;4.00;100.00;99453.56;5043875;28;20528;-92
2022/10/16 06:34:04;;;;;;;1.92;0.45;;;;;;;3.93;100.00;99453.25;5030403;28;20135;-91
2022/10/16 06:36:33;;;;;;;2.95;0.40;;;;;;;3.92;100.00;99452.41;5051149;28;20033;-91
2022/10/16 06:39:01;;;;;;;3.83;0.38;;;;;;;3.96;100.00;99453.84;5049151;28;20044;-91
2022/10/16 06:41:29;;;;;;;1.75;0.25;;;;;;;4.02;100.00;99457.72;5041023;28;20037;-91
2022/10/16 06:43:58;;;;;;;7.43;0.52;;;;;;;4.03;100.00;99461.16;5021244;28;20037;-92
2022/10/16 06:46:27;;;;;;;4.13;0.30;;;;;;;4.01;100.00;99461.28;5034035;28;20040;-91
2022/10/16 06:48:55;;;;;;;1.17;0.10;;;;;;;4.01;100.00;99465.69;5064438;28;20120;-91
2022/10/16 06:51:24;;;;;;;1.45;0.30;;;;;;;4.05;100.00;99460.06;5011513;28;20091;-91
2022/10/16 06:53:56;;;;;;;0.60;0.30;;;;;;;4.07;100.00;99460.78;5023945;28;20063;-91
2022/10/16 06:56:27;;;;;;;2.60;0.30;;;;;;;4.03;100.00;99464.59;5053062;28;20088;-91
2022/10/16 06:58:55;;;;;;;2.83;0.30;;;;;;;3.99;100.00;99471.03;5023196;28;20041;-92
2022/10/16 07:01:26;;;;;;;0.85;0.20;;;;;;;3.96;100.00;99479.13;5040084;28;20032;-91
2022/10/16 07:03:56;;;;;;;2.60;0.30;;;;;;;3.90;100.00;99500.56;5043276;28;20040;-91
2022/10/16 07:06:27;;;;;;;0.50;0.20;;;;;;;3.87;100.00;99506.03;5027026;28;20060;-92
2022/10/16 07:08:57;;;;;;;1.08;0.22;;;;;;;3.66;100.00;99501.56;5058575;28;20028;-92
2022/10/16 07:11:26;;;;;;;1.30;0.40;;;;;;;3.39;100.00;99492.38;5055306;28;20036;-92
2022/10/16 07:13:54;;;;;;;2.67;0.22;;;;;;;3.35;100.00;99495.22;5040893;28;20032;-92
2022/10/16 07:16:27;;;;;;;5.03;0.40;;;;;;;3.47;100.00;99497.81;5041580;28;20036;-92
2022/10/16 07:19:01;;;;;;;1.48;0.20;;;;;;;3.57;100.00;99498.75;5075407;28;20056;-92
2022/10/16 07:21:35;;;;;;;3.47;0.40;;;;;;;3.69;100.00;99506.56;5037893;28;20025;-92
2022/10/16 07:24:13;;;;;;;0.50;0.20;;;;;;;3.78;100.00;99515.44;5058048;28;20070;-91
2022/10/16 07:26:42;;;;;;;3.65;0.40;;;;;;;3.81;100.00;99521.25;5057580;28;20040;-91
2022/10/16 07:29:19;;;;;;;1.65;0.38;;;;;;;3.81;100.00;99518.63;5021529;28;20045;-90
2022/10/16 07:31:48;;;;;;;1.98;0.40;;;;;;;3.83;100.00;99513.28;5057867;28;20028;-91
2022/10/16 07:34:18;;;;;;;6.13;0.43;;;;;;;3.92;100.00;99515.16;5029466;28;20037;-91
2022/10/16 07:36:49;;;;;;;1.08;0.30;;;;;;;4.01;100.00;99513.59;5034503;28;20024;-92
2022/10/16 07:39:19;;;;;;;8.15;0.60;;;;;;;4.11;100.00;99524.09;5056260;28;20503;-92
2022/10/16 07:41:49;;;;;;;0.77;0.17;;;;;;;4.21;100.00;99526.81;5031839;28;20057;-92
2022/10/16 07:44:17;;;;;;;5.65;0.40;;;;;;;4.22;100.00;99525.88;5040124;28;20504;-92
2022/10/16 07:46:46;;;;;;;1.20;0.30;;;;;;;4.20;100.00;99522.53;5016238;28;20044;-92
2022/10/16 07:49:15;;;;;;;2.47;0.30;;;;;;;4.23;100.00;99522.28;5022796;28;20106;-93
2022/10/16 07:51:42;;;;;;;3.08;0.28;;;;;;;4.28;100.00;99522.75;5041415;28;20028;-92
2022/10/16 07:54:11;;;;;;;3.03;0.30;;;;;;;4.29;100.00;99516.56;5050366;28;20377;-93
2022/10/16 07:56:39;;;;;;;1.77;0.20;;;;;;;4.31;100.00;99514.66;5033883;28;20040;-92
2022/10/16 07:59:09;;;;;;;0.73;0.10;;;;;;;4.38;100.00;99522.00;5038392;28;20094;-92
2022/10/16 08:01:38;;;;;;;1.50;0.20;;;;;;;4.41;100.00;99519.94;5043032;28;20514;-91
2022/10/16 08:04:09;;;;;;;1.40;0.43;;;;;;;4.44;100.00;99524.91;5052674;28;20047;-93
2022/10/16 08:06:40;;;;;;;4.43;0.20;;;;;;;4.49;100.00;99510.63;5032305;28;20040;-92
2022/10/16 08:09:10;;;;;;;1.52;0.30;;;;;;;4.54;100.00;99513.69;5035793;28;20037;-92
2022/10/16 08:11:39;;;;;;;1.85;0.20;;;;;;;4.61;100.00;99522.69;5053824;28;20036;-92
2022/10/16 08:14:07;;;;;;;1.23;0.22;;;;;;;4.62;100.00;99528.75;5041701;28;20056;-92
2022/10/16 08:16:35;;;;;;;7.03;0.30;;;;;;;4.64;100.00;99540.75;5073401;28;20162;-92
2022/10/16 08:19:03;;;;;;;2.80;0.40;;;;;;;4.65;100.00;99542.41;5066555;28;20036;-91
2022/10/16 08:21:32;;;;;;;3.30;0.40;;;;;;;4.71;100.00;99534.03;5028677;28;20039;-93
2022/10/16 08:24:00;;;;;;;3.25;0.50;;;;;;;4.76;100.00;99536.25;5037063;28;20048;-92
2022/10/16 08:26:30;;;;;;;0.95;0.15;;;;;;;4.86;100.00;99543.38;5040109;28;20040;-91
2022/10/16 08:28:59;;;;;;;0.85;0.38;;;;;;;4.92;100.00;99546.28;5056337;28;20136;-91
2022/10/16 08:31:27;;;;;;;1.60;0.35;;;;;;;4.97;100.00;99540.63;5018285;28;20040;-92
2022/10/16 08:33:56;;;;;;;3.30;0.77;;;;;;;4.99;100.00;99535.28;5035586;28;20040;-91
2022/10/16 08:36:23;;;;;;;1.88;0.30;;;;;;;5.02;100.00;99545.47;5072161;28;20615;-91
2022/10/16 08:38:54;;;;;;;1.90;0.40;;;;;;;5.05;100.00;99548.69;5036063;28;20032;-92
2022/10/16 08:41:37;;;;;;;0.60;0.20;;;;;;;5.10;100.00;99550.91;5053168;28;20048;-92
2022/10/16 08:44:42;;;;;;;0.65;0.40;;;;;;;5.12;100.00;99548.16;5041960;28;20028;-92
2022/10/16 08:47:21;;;;;;;2.42;0.80;;;;;;;5.16;100.00;99553.00;5034574;28;20046;-91
2022/10/16 08:50:10;;;;;;;3.55;0.77;;;;;;;5.18;100.00;99565.97;5038287;28;20033;-92
2022/10/16 08:52:44;;;;;;;4.63;0.90;;;;;;;5.22;100.00;99562.94;5038549;28;20043;-92
2022/10/16 08:55:32;;;;;;;1.63;0.80;;;;;;;5.29;100.00;99570.28;5045514;28;20093;-91
2022/10/16 08:58:02;;;;;;;1.63;0.75;;;;;;;5.34;100.00;99568.09;5055964;28;20151;-92
2022/10/16 09:00:32;;;;;;;5.72;1.42;;;;;;;5.28;100.00;99581.75;5052976;28;20033;-91
2022/10/16 09:03:11;;;;;;;3.50;2.45;;;;;;;5.24;100.00;99582.97;5033324;28;20156;-91
2022/10/16 09:05:58;;;;;;;3.80;2.35;;;;;;;5.28;100.00;99586.97;5033729;28;20048;-91
2022/10/16 09:08:33;;;;;;;5.88;3.28;;;;;;;5.26;100.00;99594.97;5017798;28;20032;-90
2022/10/16 09:11:21;;;;;;;6.15;3.28;;;;;;;5.26;100.00;99584.50;5014279;28;20037;-92
2022/10/16 09:14:01;;;;;;;7.93;2.85;;;;;;;5.15;100.00;99572.31;5030868;28;20154;-93
2022/10/16 09:16:35;;;;;;;8.80;1.90;;;;;;;4.97;100.00;99572.91;5035594;28;20040;-92
2022/10/16 09:19:25;;;;;;;4.85;1.80;;;;;;;4.96;100.00;99571.25;5018721;28;20028;-92
2022/10/16 09:21:55;;;;;;;2.85;1.30;;;;;;;4.92;100.00;99567.22;5018694;28;20041;-91
2022/10/16 09:24:26;;;;;;;4.20;1.13;;;;;;;4.98;100.00;99571.13;5016415;28;20040;-91
2022/10/16 09:26:56;;;;;;;3.13;1.35;;;;;;;5.07;100.00;99559.88;5049315;28;20108;-91
2022/10/16 09:29:25;;;;;;;6.47;2.53;;;;;;;5.17;100.00;99565.16;5020096;28;20042;-92
2022/10/16 09:31:56;;;;;;;7.38;2.38;;;;;;;5.29;100.00;99570.28;5011235;28;20034;-91
2022/10/16 09:34:32;;;;;;;6.15;3.08;;;;;;;5.35;100.00;99575.03;5031423;28;20033;-92
2022/10/16 09:37:09;;;;;;;6.55;3.10;;;;;;;5.40;100.00;99585.91;5038079;28;20036;-92
2022/10/16 09:39:54;;;;;;;17.85;5.80;;;;;;;5.45;100.00;99588.16;5039098;28;20380;-91
2022/10/16 09:42:36;;;;;;;14.30;7.15;;;;;;;5.51;100.00;99587.63;5024874;28;20037;-92
2022/10/16 09:45:05;;;;;;;16.30;6.35;;;;;;;5.54;100.00;99582.09;5044030;28;20029;-91
2022/10/16 09:47:40;;;;;;;13.73;6.68;;;;;;;5.56;100.00;99580.19;5018732;28;20543;-92
2022/10/16 09:50:24;;;;;;;14.80;7.20;;;;;;;5.54;100.00;99574.25;5034506;28;20053;-89
2022/10/16 09:53:12;;;;;;;10.93;4.75;;;;;;;5.53;100.00;99564.72;5038235;28;20040;-92
2022/10/16 09:55:54;;;;;;;7.85;3.65;;;;;;;5.52;100.00;99563.09;5038591;28;20036;-89
2022/10/16 09:58:24;;;;;;;10.25;3.90;;;;;;;5.52;100.00;99564.84;5017694;28;20045;-92
2022/10/16 10:00:53;;;;;;;8.60;3.00;;;;;;;5.56;100.00;99569.69;5030473;28;20034;-92
2022/10/16 10:03:42;;;;;;;6.47;3.22;;;;;;;5.56;100.00;99561.84;5023299;28;20067;-92
2022/10/16 10:06:26;;;;;;;6.50;2.83;;;;;;;5.65;100.00;99557.59;5040124;28;20040;-92
2022/10/16 10:09:20;;;;;;;5.72;2.58;;;;;;;5.77;100.00;99557.47;5052757;28;20157;-92
2022/10/16 10:11:58;;;;;;;4.32;1.80;;;;;;;5.92;100.00;99550.06;5030179;28;20115;-92
2022/10/16 10:14:41;;;;;;;6.57;2.22;;;;;;;6.03;100.00;99551.72;5044090;28;20036;-92
2022/10/16 10:17:19;;;;;;;8.77;2.45;;;;;;;6.06;100.00;99548.84;5029090;28;20032;-91
2022/10/16 10:19:48;;;;;;;11.63;2.08;;;;;;;6.11;100.00;99557.16;5051619;28;20040;-91
2022/10/16 10:22:41;;;;;;;9.30;1.67;;;;;;;6.25;100.00;99557.69;5025177;28;20050;-91
2022/10/16 10:25:09;;;;;;;3.20;0.93;;;;;;;6.33;100.00;99561.28;5048530;28;20033;-91
2022/10/16 10:28:02;;;;;;;5.82;0.88;;;;;;;6.45;100.00;99558.50;5026597;28;20045;-91
2022/10/16 10:30:55;;;;;;;2.85;0.68;;;;;;;6.55;100.00;99563.75;5014091;28;20033;-90
2022/10/16 10:33:30;;;;;;;8.25;0.85;;;;;;;6.67;100.00;99561.81;5027756;28;20039;-90
2022/10/16 10:36:07;;;;;;;2.25;0.40;;;;;;;6.78;100.00;99569.53;5026408;28;20048;-91
2022/10/16 10:38:42;;;;;;;4.10;1.27;;;;;;;6.82;100.00;99570.91;5038139;28;20032;-91
2022/10/16 10:41:30;;;;;;;5.07;0.90;;;;;;;6.91;100.00;99561.31;5045708;28;20036;-91
2022/10/16 10:44:25;;;;;;;10.77;0.88;;;;;;;6.99;100.00;99562.44;5037939;28;20128;-90
2022/10/16 10:47:21;;;;;;;1.63;0.55;;;;;;;7.07;100.00;99568.63;5054068;28;20040;-91
2022/10/16 10:50:15;;;;;;;5.00;1.35;;;;;;;7.14;100.00;99571.50;5035108;28;20575;-90
2022/10/16 10:52:59;;;;;;;7.07;1.15;;;;;;;7.23;100.00;99567.19;5058306;28;20032;-90
2022/10/16 10:55:46;;;;;;;2.65;0.65;;;;;;;7.32;100.00;99562.88;5039249;28;20071;-92
2022/10/16 10:58:33;;;;;;;3.20;0.75;;;;;;;7.37;100.00;99557.16;5020645;28;20135;-91
2022/10/16 11:01:10;;;;;;;8.60;0.77;;;;;;;7.38;100.00;99566.69;5053267;28;20037;-90
2022/10/16 11:04:01;;;;;;;2.65;0.60;;;;;;;7.41;100.00;99580.41;5061493;28;20037;-91
2022/10/16 11:06:46;;;;;;;3.90;0.90;;;;;;;7.42;100.00;99573.34;5038206;28;20052;-91
2022/10/16 11:09:32;;;;;;;3.05;0.90;;;;;;;7.43;100.00;99569.72;5048332;28;20025;-92
2022/10/16 11:12:07;;;;;;;;;;;;;;;7.36;100.00;99566.84;5050491;28;20030;-92
2022/10/16 11:15:06;;;;;;;4.95;1.60;;;;;;;7.43;100.00;99557.44;5036980;28;20379;-91
2022/10/16 11:17:41;;;;;;;7.43;0.65;;;;;;;7.47;100.00;99562.38;5053904;28;20086;-91
2022/10/16 11:20:23;;;;;;;3.70;0.70;;;;;;;7.47;100.00;99552.69;5016904;28;20037;-93
2022/10/16 11:23:08;;;;;;;2.60;1.55;;;;;;;7.51;100.00;99559.31;5030974;28;20084;-92
2022/10/16 11:25:36;;;;;;;5.82;1.50;;;;;;;7.59;100.00;99560.38;5031073;28;20045;-90
2022/10/16 11:28:16;;;;;;;4.75;0.63;;;;;;;7.66;100.00;99545.69;5038540;28;20469;-90
2022/10/16 11:31:01;;;;;;;6.38;0.75;;;;;;;7.77;100.00;99536.75;5022463;28;20396;-90
2022/10/16 11:33:39;;;;;;;12.10;1.33;;;;;;;7.83;100.00;99533.53;5016631;28;20056;-91
2022/10/16 11:36:16;;;;;;;2.53;0.68;;;;;;;7.88;100.00;99539.19;5035987;28;20036;-90
2022/10/16 11:39:02;;;;;;;6.53;1.17;;;;;;;7.97;100.00;99540.06;5020951;28;20032;-92
2022/10/16 11:41:49;;;;;;;4.72;0.98;;;;;;;8.02;100.00;99535.19;5065224;28;20037;-90
2022/10/16 11:44:55;;;;;;;4.10;0.98;;;;;;;8.06;100.00;99525.16;5036029;28;20032;-90
2022/10/16 11:47:41;;;;;;;5.30;0.88;;;;;;;8.09;100.00;99524.06;5033301;28;20029;-89
2022/10/16 11:50:41;;;;;;;3.15;0.90;;;;;;;8.09;100.00;99521.44;5027919;28;20096;-92
2022/10/16 11:53:17;;;;;;;8.38;1.13;;;;;;;8.07;100.00;99517.13;5031563;28;20065;-91
2022/10/16 11:55:47;;;;;;;6.45;1.00;;;;;;;8.06;100.00;99510.22;5054462;28;20040;-93
2022/10/16 11:58:34;;;;;;;3.58;0.88;;;;;;;8.11;100.00;99506.28;5049998;28;20037;-92
2022/10/16 12:01:34;;;;;;;5.30;0.93;;;;;;;8.12;100.00;99502.69;5049849;28;20037;-94
2022/10/16 12:04:27;;;;;;;5.32;1.33;;;;;;;8.12;100.00;99514.03;5041041;28;20081;-94
2022/10/16 12:07:09;;;;;;;7.57;1.83;;;;;;;8.14;100.00;99511.25;5026885;28;20033;-93